Time;durP1;ratioP1;P1;durP2;ratioP2;P2;SDS_P1;SDS_P2;PMS_P1;PMS_P2;Temp;Humidity;BMP_temperature;BMP_pressure;BME280_temperature;BME280_humidity;BME280_pressure;Samples;Min_cycle;Max_cycle;Signal;HPM_P1;HPM_P2
2023/03/19 00:02:10;;;;;;;33.20;17.65;;;8.30;94.60;;;;;;5088429;28;20259;-74
2023/03/19 00:04:36;;;;;;;27.65;16.60;;;8.20;94.80;;;;;;5087478;28;20495;-74
2023/03/19 00:07:01;;;;;;;29.17;17.58;;;7.90;95.20;;;;;;5090387;28;20025;-74
2023/03/19 00:09:28;;;;;;;30.80;17.13;;;7.80;95.50;;;;;;5089728;28;20405;-74
2023/03/19 00:11:54;;;;;;;30.05;17.30;;;7.60;95.80;;;;;;5088841;28;20090;-74
2023/03/19 00:14:19;;;;;;;29.70;17.88;;;7.80;95.60;;;;;;5091549;28;20040;-74
2023/03/19 00:16:45;;;;;;;32.35;19.17;;;8.00;95.40;;;;;;5090965;28;20036;-74
2023/03/19 00:19:11;;;;;;;32.15;19.40;;;8.10;95.20;;;;;;5094816;28;20024;-74
2023/03/19 00:21:36;;;;;;;36.58;20.20;;;8.40;94.90;;;;;;5094535;28;20024;-73
2023/03/19 00:24:02;;;;;;;33.22;17.35;;;8.60;94.50;;;;;;5093818;28;20100;-74
2023/03/19 00:26:32;;;;;;;28.30;17.17;;;8.50;94.50;;;;;;5093804;28;20064;-74
2023/03/19 00:28:59;;;;;;;31.40;17.40;;;8.30;94.90;;;;;;5093074;28;20028;-74
2023/03/19 00:31:27;;;;;;;27.10;16.38;;;8.20;94.90;;;;;;5094175;28;20119;-73
2023/03/19 00:33:53;;;;;;;29.80;18.42;;;8.30;94.90;;;;;;5095084;28;20028;-73
2023/03/19 00:36:20;;;;;;;29.77;17.38;;;8.20;95.00;;;;;;5091936;28;20047;-73
2023/03/19 00:38:46;;;;;;;27.55;17.10;;;8.10;95.10;;;;;;5094828;28;20059;-73
2023/03/19 00:41:12;;;;;;;28.15;17.50;;;8.10;95.20;;;;;;5093620;28;20485;-73
2023/03/19 00:43:38;;;;;;;27.38;16.70;;;8.00;95.50;;;;;;5094748;28;20032;-73
2023/03/19 00:46:04;;;;;;;28.23;18.13;;;7.80;95.60;;;;;;5093970;28;20035;-74
2023/03/19 00:48:30;;;;;;;26.02;16.88;;;7.80;95.90;;;;;;5093105;28;20035;-74
2023/03/19 00:51:03;;;;;;;30.67;18.83;;;7.90;95.80;;;;;;5094192;28;20030;-73
2023/03/19 00:53:29;;;;;;;29.08;16.58;;;7.90;95.70;;;;;;5093084;28;20032;-73
2023/03/19 00:55:55;;;;;;;29.30;17.25;;;8.00;95.70;;;;;;5090706;28;20028;-73
2023/03/19 00:58:20;;;;;;;33.10;18.65;;;7.90;95.70;;;;;;5091702;28;20127;-73
2023/03/19 01:00:47;;;;;;;28.77;18.08;;;7.90;95.80;;;;;;5093852;28;20029;-73
2023/03/19 01:03:13;;;;;;;31.95;18.50;;;7.80;96.20;;;;;;5092300;28;20359;-74
2023/03/19 01:05:40;;;;;;;31.83;18.15;;;7.70;96.20;;;;;;5092578;28;20031;-73
2023/03/19 01:08:05;;;;;;;30.38;17.40;;;7.80;96.10;;;;;;5089643;28;20568;-73
2023/03/19 01:10:33;;;;;;;29.40;18.17;;;7.90;95.90;;;;;;5074097;28;20107;-73
2023/03/19 01:12:59;;;;;;;30.77;16.85;;;7.80;96.20;;;;;;5083171;28;20085;-73
2023/03/19 01:15:25;;;;;;;30.35;18.60;;;7.80;96.30;;;;;;5094352;28;20036;-73
2023/03/19 01:17:50;;;;;;;35.08;20.83;;;7.60;96.50;;;;;;5094060;28;20435;-73
2023/03/19 01:20:17;;;;;;;31.90;19.00;;;7.60;96.50;;;;;;5093766;28;20541;-73
2023/03/19 01:22:44;;;;;;;30.13;17.73;;;7.60;96.60;;;;;;5093976;28;20028;-73
2023/03/19 01:25:12;;;;;;;32.75;19.45;;;7.40;96.90;;;;;;5093975;28;20024;-73
2023/03/19 01:27:39;;;;;;;30.85;17.90;;;7.50;96.80;;;;;;5093485;28;20537;-73
2023/03/19 01:30:06;;;;;;;35.13;19.10;;;7.70;96.50;;;;;;5093596;28;20052;-73
2023/03/19 01:32:32;;;;;;;31.60;17.65;;;7.80;96.40;;;;;;5093127;28;20039;-73
2023/03/19 01:34:58;;;;;;;32.85;19.30;;;7.80;96.30;;;;;;5093851;28;20508;-73
2023/03/19 01:37:24;;;;;;;31.27;18.17;;;7.70;96.40;;;;;;5092974;28;20048;-74
2023/03/19 01:39:49;;;;;;;31.13;18.50;;;7.70;96.50;;;;;;5093528;28;20035;-74
2023/03/19 01:42:16;;;;;;;32.40;19.85;;;7.50;96.60;;;;;;5093384;28;20032;-73
2023/03/19 01:44:43;;;;;;;32.58;19.00;;;7.50;96.70;;;;;;5093637;28;20540;-73
2023/03/19 01:47:22;;;;;;;33.17;19.05;;;7.50;96.80;;;;;;5093517;28;20024;-73
2023/03/19 01:49:53;;;;;;;31.10;19.50;;;7.50;96.70;;;;;;5093037;28;20035;-73
2023/03/19 01:52:19;;;;;;;32.00;19.25;;;7.60;96.70;;;;;;5093452;28;20024;-73
2023/03/19 01:54:46;;;;;;;33.03;19.00;;;7.50;96.80;;;;;;5093117;28;20502;-73
2023/03/19 01:57:14;;;;;;;33.20;19.52;;;7.60;96.80;;;;;;5092640;28;20173;-73
2023/03/19 01:59:44;;;;;;;30.55;17.63;;;7.50;96.90;;;;;;5091071;28;20035;-73
2023/03/19 02:02:19;;;;;;;30.33;18.13;;;7.50;97.10;;;;;;5092508;28;20028;-73
2023/03/19 02:04:48;;;;;;;33.03;18.63;;;7.50;97.10;;;;;;5091364;28;20039;-73
2023/03/19 02:07:14;;;;;;;34.17;19.50;;;7.70;96.80;;;;;;5092389;28;20028;-73
2023/03/19 02:09:40;;;;;;;33.38;17.92;;;7.70;96.60;;;;;;5092478;28;20042;-73
2023/03/19 02:12:08;;;;;;;29.55;19.83;;;7.70;96.60;;;;;;5092551;28;20035;-73
2023/03/19 02:14:33;;;;;;;33.05;18.48;;;7.60;96.80;;;;;;5091731;28;20039;-73
2023/03/19 02:16:59;;;;;;;32.00;19.13;;;7.60;96.90;;;;;;5093088;28;20032;-73
2023/03/19 02:19:34;;;;;;;34.30;20.10;;;7.70;96.80;;;;;;5092583;28;20039;-73
2023/03/19 02:22:01;;;;;;;33.17;19.60;;;7.60;96.90;;;;;;5093349;28;20089;-73
2023/03/19 02:24:56;;;;;;;33.38;19.88;;;7.60;97.00;;;;;;5092034;28;20438;-73
2023/03/19 02:27:22;;;;;;;32.47;18.70;;;7.50;97.00;;;;;;5084711;28;20082;-73
2023/03/19 02:29:48;;;;;;;33.85;20.67;;;7.60;97.00;;;;;;5090758;28;20024;-74
2023/03/19 02:32:13;;;;;;;31.38;19.15;;;7.60;97.00;;;;;;5092441;28;20035;-73
2023/03/19 02:34:41;;;;;;;31.45;18.48;;;7.60;96.90;;;;;;5091586;28;20039;-73
2023/03/19 02:37:24;;;;;;;36.97;19.80;;;7.60;96.90;;;;;;5092164;28;20115;-73
2023/03/19 02:39:57;;;;;;;30.52;19.45;;;7.80;96.80;;;;;;5091549;28;20039;-73
2023/03/19 02:42:26;;;;;;;31.02;18.85;;;7.60;97.00;;;;;;5092039;28;20355;-73
2023/03/19 02:44:51;;;;;;;36.55;20.42;;;7.50;97.10;;;;;;5092109;28;20140;-73
2023/03/19 02:47:18;;;;;;;36.05;21.58;;;7.50;97.10;;;;;;5092054;28;20061;-74
2023/03/19 02:49:43;;;;;;;33.30;20.38;;;7.50;97.10;;;;;;5092247;28;20028;-73
2023/03/19 02:52:09;;;;;;;32.25;19.58;;;7.40;97.50;;;;;;5092082;28;20033;-73
2023/03/19 02:54:35;;;;;;;32.45;20.77;;;7.50;97.40;;;;;;5091972;28;20028;-73
2023/03/19 02:57:01;;;;;;;32.88;18.98;;;7.40;97.50;;;;;;5090731;28;20089;-74
2023/03/19 02:59:26;;;;;;;35.88;19.25;;;7.50;97.40;;;;;;5090693;28;20043;-73
2023/03/19 03:01:52;;;;;;;30.85;19.65;;;7.50;97.40;;;;;;5086986;28;20393;-74
2023/03/19 03:04:17;;;;;;;31.10;19.42;;;7.40;97.50;;;;;;5091536;28;20035;-74
2023/03/19 03:06:43;;;;;;;34.33;19.63;;;7.50;97.30;;;;;;5091671;28;20052;-74
2023/03/19 03:09:11;;;;;;;33.00;20.27;;;7.40;97.50;;;;;;5090867;28;20378;-74
2023/03/19 03:11:37;;;;;;;36.42;20.38;;;7.50;97.50;;;;;;5079685;28;20035;-74
2023/03/19 03:14:03;;;;;;;33.53;19.05;;;7.50;97.40;;;;;;5071912;28;20020;-74
2023/03/19 03:16:29;;;;;;;30.50;18.60;;;7.30;97.40;;;;;;5091198;28;20024;-74
2023/03/19 03:18:55;;;;;;;34.78;18.75;;;7.10;97.70;;;;;;5092485;28;20024;-74
2023/03/19 03:21:22;;;;;;;34.03;19.50;;;6.90;98.20;;;;;;5091817;28;20030;-75
2023/03/19 03:23:47;;;;;;;35.22;20.02;;;6.70;98.60;;;;;;5092123;28;20051;-74
2023/03/19 03:26:14;;;;;;;32.65;19.33;;;6.80;98.60;;;;;;5093869;28;20394;-74
2023/03/19 03:28:40;;;;;;;36.83;20.85;;;7.00;98.40;;;;;;5080620;28;20024;-74
2023/03/19 03:31:06;;;;;;;33.25;20.00;;;7.10;98.20;;;;;;5075586;28;20036;-74
2023/03/19 03:33:32;;;;;;;42.17;21.33;;;7.20;98.00;;;;;;5075860;28;20070;-74
2023/03/19 03:35:58;;;;;;;35.13;20.42;;;7.40;97.70;;;;;;5075677;28;20029;-74
2023/03/19 03:38:23;;;;;;;39.45;21.35;;;7.60;97.50;;;;;;5093384;28;20043;-75
2023/03/19 03:40:54;;;;;;;36.10;19.60;;;7.60;97.30;;;;;;5095728;28;20032;-74
2023/03/19 03:43:20;;;;;;;36.25;19.20;;;7.50;97.40;;;;;;5095691;28;20157;-74
2023/03/19 03:45:47;;;;;;;35.40;22.20;;;7.50;97.40;;;;;;5096420;28;20039;-74
2023/03/19 03:48:13;;;;;;;36.65;19.35;;;7.50;97.60;;;;;;5096109;28;20378;-74
2023/03/19 03:50:39;;;;;;;37.33;20.27;;;7.60;97.30;;;;;;5095706;28;20038;-74
2023/03/19 03:53:05;;;;;;;31.17;18.88;;;7.70;97.20;;;;;;5095731;28;20223;-74
2023/03/19 03:55:31;;;;;;;37.50;20.55;;;7.60;97.30;;;;;;5094649;28;20111;-74
2023/03/19 03:57:57;;;;;;;32.80;18.95;;;7.40;97.60;;;;;;5093306;28;20119;-74
2023/03/19 04:00:24;;;;;;;33.92;19.05;;;7.10;98.10;;;;;;5093703;28;20128;-74
2023/03/19 04:02:50;;;;;;;32.60;19.23;;;7.00;98.20;;;;;;5092078;28;20459;-74
2023/03/19 04:05:16;;;;;;;36.30;21.40;;;7.10;98.50;;;;;;5077128;28;20027;-75
2023/03/19 04:07:42;;;;;;;37.08;21.08;;;7.20;98.30;;;;;;5090476;28;20024;-74
2023/03/19 04:10:09;;;;;;;37.05;22.17;;;7.30;98.00;;;;;;5090590;28;20051;-75
2023/03/19 04:12:36;;;;;;;33.63;19.60;;;7.50;97.80;;;;;;5090363;28;20028;-75
2023/03/19 04:15:07;;;;;;;36.42;18.85;;;7.40;97.80;;;;;;5089628;28;20462;-76
2023/03/19 04:17:34;;;;;;;35.50;19.67;;;7.20;98.00;;;;;;5080557;28;20079;-76
2023/03/19 04:20:01;;;;;;;34.72;20.67;;;7.20;98.10;;;;;;5080479;28;20406;-76
2023/03/19 04:22:27;;;;;;;39.75;23.25;;;7.30;98.10;;;;;;5087083;28;20578;-75
2023/03/19 04:24:53;;;;;;;35.17;21.13;;;7.30;97.90;;;;;;5089320;28;20036;-75
2023/03/19 04:27:19;;;;;;;41.97;20.58;;;7.40;98.00;;;;;;5088317;28;20052;-75
2023/03/19 04:29:45;;;;;;;36.22;22.48;;;7.20;98.10;;;;;;5071684;28;20064;-75
2023/03/19 04:32:10;;;;;;;38.50;21.10;;;7.00;98.60;;;;;;5089560;28;20032;-76
2023/03/19 04:34:36;;;;;;;30.48;18.55;;;6.90;98.90;;;;;;5088176;28;20028;-75
2023/03/19 04:37:02;;;;;;;36.22;19.85;;;6.90;98.90;;;;;;5088645;28;20692;-75
2023/03/19 04:39:28;;;;;;;35.28;21.33;;;6.90;99.00;;;;;;5089780;28;20040;-76
2023/03/19 04:41:53;;;;;;;37.00;22.45;;;6.70;99.10;;;;;;5090314;28;20137;-75
2023/03/19 04:44:19;;;;;;;32.03;19.17;;;6.80;99.10;;;;;;5089094;28;20655;-76
2023/03/19 04:46:45;;;;;;;35.72;19.90;;;6.90;99.00;;;;;;5089625;28;20034;-75
2023/03/19 04:49:11;;;;;;;39.05;20.10;;;6.90;98.80;;;;;;5089513;28;20482;-74
2023/03/19 04:51:37;;;;;;;32.72;20.70;;;7.30;98.50;;;;;;5089876;28;20481;-74
2023/03/19 04:54:04;;;;;;;34.58;19.92;;;7.30;98.30;;;;;;5089478;28;20032;-74
2023/03/19 04:56:30;;;;;;;35.67;21.27;;;7.30;98.20;;;;;;5090233;28;20024;-77
2023/03/19 04:58:56;;;;;;;34.65;20.60;;;7.20;98.20;;;;;;5087057;28;20048;-75
2023/03/19 05:01:22;;;;;;;35.17;20.48;;;7.20;98.30;;;;;;5086071;28;20039;-75
2023/03/19 05:03:48;;;;;;;35.03;19.13;;;7.10;98.50;;;;;;5085284;28;20039;-75
2023/03/19 05:06:14;;;;;;;33.45;20.00;;;7.00;98.80;;;;;;5084332;28;20028;-74
2023/03/19 05:08:40;;;;;;;38.03;21.58;;;6.90;98.90;;;;;;5079442;28;20478;-74
2023/03/19 05:11:05;;;;;;;37.25;20.83;;;6.70;99.10;;;;;;5066741;28;20033;-75
2023/03/19 05:13:31;;;;;;;34.78;20.52;;;6.60;99.50;;;;;;5080467;28;20028;-75
2023/03/19 05:15:56;;;;;;;39.03;20.52;;;6.50;99.50;;;;;;5086565;28;20024;-76
2023/03/19 05:18:22;;;;;;;32.10;19.83;;;6.60;99.50;;;;;;5086211;28;20168;-74
2023/03/19 05:20:48;;;;;;;33.22;18.60;;;6.60;99.30;;;;;;5086133;28;20024;-75
2023/03/19 05:23:14;;;;;;;34.95;19.05;;;6.60;99.50;;;;;;5086752;28;20739;-75
2023/03/19 05:25:39;;;;;;;31.98;18.52;;;6.50;99.70;;;;;;5086620;28;20020;-75
2023/03/19 05:28:07;;;;;;;31.77;18.83;;;6.40;99.70;;;;;;5086554;28;20050;-75
2023/03/19 05:30:34;;;;;;;34.20;20.70;;;6.50;99.80;;;;;;5086561;28;20056;-75
2023/03/19 05:33:00;;;;;;;31.92;18.85;;;6.40;99.90;;;;;;5086270;28;20032;-76
2023/03/19 05:35:28;;;;;;;30.10;17.48;;;6.40;99.90;;;;;;5085997;28;20377;-75
2023/03/19 05:37:54;;;;;;;33.30;18.35;;;6.50;99.90;;;;;;5085073;28;20036;-75
2023/03/19 05:40:21;;;;;;;31.38;18.67;;;6.50;99.80;;;;;;5085115;28;20605;-74
2023/03/19 05:42:47;;;;;;;32.53;19.00;;;6.60;99.70;;;;;;5085565;28;20032;-75
2023/03/19 05:45:13;;;;;;;34.78;21.20;;;6.50;99.90;;;;;;5085607;28;20076;-75
2023/03/19 05:47:39;;;;;;;36.33;21.00;;;6.40;99.90;;;;;;5086030;28;20051;-75
2023/03/19 05:50:06;;;;;;;34.20;20.98;;;6.40;99.90;;;;;;5085007;28;20032;-75
2023/03/19 05:52:32;;;;;;;31.95;19.48;;;6.40;99.90;;;;;;5085430;28;20110;-75
2023/03/19 05:54:58;;;;;;;31.42;18.30;;;6.50;99.90;;;;;;5084359;28;20116;-74
2023/03/19 05:57:24;;;;;;;33.58;20.25;;;6.40;99.90;;;;;;5085579;28;20046;-78
2023/03/19 05:59:49;;;;;;;35.72;20.55;;;6.50;99.90;;;;;;5084757;28;20043;-75
2023/03/19 06:02:16;;;;;;;35.08;21.02;;;6.50;99.90;;;;;;5084801;28;20123;-77
2023/03/19 06:04:42;;;;;;;35.03;19.88;;;6.30;99.90;;;;;;5083644;28;20063;-76
2023/03/19 06:07:07;;;;;;;34.45;19.67;;;6.30;99.90;;;;;;5082276;28;20070;-77
2023/03/19 06:09:33;;;;;;;32.05;18.45;;;6.50;99.90;;;;;;5084998;28;20035;-76
2023/03/19 06:11:59;;;;;;;30.38;17.25;;;6.40;99.90;;;;;;5085130;28;20024;-75
2023/03/19 06:14:25;;;;;;;32.35;18.42;;;6.50;99.90;;;;;;5084460;28;20028;-75
2023/03/19 06:16:51;;;;;;;36.20;18.75;;;6.40;99.90;;;;;;5085220;28;20097;-75
2023/03/19 06:19:16;;;;;;;35.25;18.90;;;6.60;99.90;;;;;;5084227;28;20036;-75
2023/03/19 06:21:42;;;;;;;27.98;16.27;;;6.40;99.90;;;;;;5085892;28;20542;-75
2023/03/19 06:24:08;;;;;;;32.72;18.10;;;6.40;99.90;;;;;;5085054;28;20624;-75
2023/03/19 06:26:34;;;;;;;35.38;18.85;;;6.30;99.90;;;;;;5084877;28;20028;-75
2023/03/19 06:29:00;;;;;;;32.90;20.02;;;6.30;99.90;;;;;;5083631;28;20024;-75
2023/03/19 06:31:26;;;;;;;39.17;21.48;;;6.30;99.90;;;;;;5081368;28;20040;-74
2023/03/19 06:33:52;;;;;;;37.08;21.27;;;6.50;99.90;;;;;;5084308;28;20020;-75
2023/03/19 06:36:18;;;;;;;37.78;21.83;;;6.80;99.90;;;;;;5085048;28;20144;-77
2023/03/19 06:38:44;;;;;;;29.30;18.35;;;6.80;99.90;;;;;;5083895;28;20075;-75
2023/03/19 06:41:10;;;;;;;31.88;19.63;;;6.80;99.90;;;;;;5085593;28;20374;-75
2023/03/19 06:43:36;;;;;;;28.80;17.13;;;6.80;99.90;;;;;;5084816;28;20121;-75
2023/03/19 06:46:05;;;;;;;32.40;18.40;;;6.80;99.90;;;;;;5084431;28;20634;-75
2023/03/19 06:48:32;;;;;;;31.48;18.50;;;6.80;99.90;;;;;;5083703;28;20031;-75
2023/03/19 06:50:58;;;;;;;29.70;18.00;;;6.80;99.90;;;;;;5085600;28;20032;-76
2023/03/19 06:53:24;;;;;;;32.80;19.88;;;6.90;99.90;;;;;;5083404;28;20111;-75
2023/03/19 06:55:49;;;;;;;33.38;19.70;;;7.20;99.90;;;;;;5083598;28;20039;-75
2023/03/19 06:58:15;;;;;;;35.88;20.48;;;7.30;99.90;;;;;;5082569;28;20036;-75
2023/03/19 07:00:41;;;;;;;34.03;20.17;;;7.40;99.90;;;;;;5086857;28;20598;-75
2023/03/19 07:03:07;;;;;;;31.60;18.60;;;7.40;99.90;;;;;;5086952;28;20111;-75
2023/03/19 07:05:32;;;;;;;34.95;20.27;;;7.40;99.90;;;;;;5088274;28;20032;-76
2023/03/19 07:07:59;;;;;;;29.95;18.42;;;7.40;99.90;;;;;;5067266;28;20482;-77
2023/03/19 07:10:24;;;;;;;29.20;18.05;;;7.40;99.90;;;;;;5069182;28;20029;-75
2023/03/19 07:12:50;;;;;;;30.58;18.63;;;7.50;99.90;;;;;;5078007;28;20024;-75
2023/03/19 07:15:16;;;;;;;29.30;18.42;;;7.40;99.40;;;;;;5089160;28;20039;-75
2023/03/19 07:17:44;;;;;;;28.48;18.20;;;7.50;99.00;;;;;;5088057;28;20382;-75
2023/03/19 07:20:11;;;;;;;30.75;18.05;;;7.50;99.00;;;;;;5091592;28;20032;-75
2023/03/19 07:22:36;;;;;;;35.30;18.63;;;7.50;99.00;;;;;;5091432;28;20377;-76
2023/03/19 07:25:02;;;;;;;30.08;18.98;;;7.50;99.10;;;;;;5091312;28;20020;-75
2023/03/19 07:27:28;;;;;;;30.05;18.92;;;7.70;99.00;;;;;;5090253;28;20033;-75
2023/03/19 07:29:54;;;;;;;30.90;18.67;;;7.80;99.80;;;;;;5092029;28;20028;-75
2023/03/19 07:32:21;;;;;;;25.77;17.75;;;7.80;99.80;;;;;;5091551;28;20035;-75
2023/03/19 07:34:47;;;;;;;30.63;16.73;;;7.90;99.50;;;;;;5091586;28;20082;-75
2023/03/19 07:37:12;;;;;;;27.40;16.30;;;7.90;98.20;;;;;;5091432;28;20044;-75
2023/03/19 07:39:38;;;;;;;27.10;17.58;;;7.90;98.20;;;;;;5088582;28;20493;-74
2023/03/19 07:42:04;;;;;;;27.02;17.40;;;8.00;98.60;;;;;;5091025;28;20716;-76
2023/03/19 07:44:30;;;;;;;26.88;17.05;;;8.10;98.50;;;;;;5090840;28;20477;-75
2023/03/19 07:46:55;;;;;;;30.58;18.58;;;8.20;98.20;;;;;;5091356;28;20031;-76
2023/03/19 07:49:22;;;;;;;28.80;18.13;;;8.30;98.00;;;;;;5087996;28;20040;-75
2023/03/19 07:51:48;;;;;;;29.48;16.38;;;8.30;97.70;;;;;;5088295;28;20108;-76
2023/03/19 07:54:14;;;;;;;32.08;18.90;;;8.40;97.90;;;;;;5087608;28;20912;-75
2023/03/19 07:56:40;;;;;;;32.67;16.80;;;8.40;98.10;;;;;;5086164;28;20028;-77
2023/03/19 07:59:05;;;;;;;27.08;17.23;;;8.50;98.20;;;;;;5088646;28;20024;-75
2023/03/19 08:01:31;;;;;;;30.80;19.38;;;8.50;98.10;;;;;;5091052;28;20032;-75
2023/03/19 08:03:57;;;;;;;30.65;17.55;;;8.50;98.00;;;;;;5089301;28;20111;-75
2023/03/19 08:06:22;;;;;;;26.70;17.85;;;8.50;98.40;;;;;;5090363;28;20070;-74
2023/03/19 08:08:48;;;;;;;31.25;18.10;;;8.50;98.40;;;;;;5087469;28;20040;-75
2023/03/19 08:11:14;;;;;;;31.00;17.45;;;8.40;98.30;;;;;;5089996;28;20024;-75
2023/03/19 08:13:41;;;;;;;25.88;17.23;;;8.40;98.30;;;;;;5090929;28;20028;-75
2023/03/19 08:16:07;;;;;;;28.23;17.70;;;8.40;98.20;;;;;;5072535;28;20029;-75
2023/03/19 08:18:33;;;;;;;27.08;17.85;;;8.50;98.10;;;;;;5072439;28;20548;-75
2023/03/19 08:20:59;;;;;;;29.55;17.73;;;8.60;98.30;;;;;;5090905;28;20059;-75
2023/03/19 08:23:25;;;;;;;28.90;18.58;;;8.70;98.10;;;;;;5088556;28;20071;-77
2023/03/19 08:25:52;;;;;;;27.92;18.55;;;8.80;98.10;;;;;;5090460;28;20363;-75
2023/03/19 08:28:19;;;;;;;29.90;18.90;;;8.90;98.20;;;;;;5089124;28;20067;-75
2023/03/19 08:30:45;;;;;;;29.85;17.13;;;9.00;98.10;;;;;;5088497;28;20028;-75
2023/03/19 08:33:11;;;;;;;26.67;17.77;;;8.90;98.00;;;;;;5088537;28;20097;-75
2023/03/19 08:35:36;;;;;;;30.23;19.42;;;9.00;98.10;;;;;;5088255;28;20032;-74
2023/03/19 08:38:02;;;;;;;27.60;17.65;;;9.20;98.00;;;;;;5089145;28;20055;-75
2023/03/19 08:40:28;;;;;;;33.72;18.65;;;9.20;98.00;;;;;;5089830;28;20474;-76
2023/03/19 08:42:55;;;;;;;26.10;16.55;;;9.10;97.90;;;;;;5089499;28;20024;-77
2023/03/19 08:45:22;;;;;;;25.17;16.17;;;9.20;97.70;;;;;;5089717;28;20024;-74
2023/03/19 08:47:48;;;;;;;30.00;18.65;;;9.30;97.80;;;;;;5089698;28;20024;-76
2023/03/19 08:50:14;;;;;;;28.80;17.73;;;9.40;98.20;;;;;;5089609;28;20028;-75
2023/03/19 08:52:40;;;;;;;28.38;17.27;;;9.30;97.70;;;;;;5089538;28;20028;-75
2023/03/19 08:55:07;;;;;;;26.30;17.13;;;9.40;98.00;;;;;;5086511;28;20155;-75
2023/03/19 08:57:33;;;;;;;23.75;15.55;;;9.40;97.60;;;;;;5074648;28;20148;-75
2023/03/19 08:59:59;;;;;;;30.35;16.50;;;9.50;97.50;;;;;;5089520;28;20145;-75
2023/03/19 09:02:24;;;;;;;29.38;16.20;;;9.70;97.50;;;;;;5086365;28;20051;-75
2023/03/19 09:04:50;;;;;;;30.02;17.98;;;9.70;97.20;;;;;;5082367;28;20021;-75
2023/03/19 09:07:16;;;;;;;31.77;18.70;;;9.70;97.10;;;;;;5087435;28;20053;-75
2023/03/19 09:09:43;;;;;;;27.83;17.83;;;9.70;96.90;;;;;;5078678;28;20055;-75
2023/03/19 09:12:11;;;;;;;26.23;16.92;;;9.70;97.10;;;;;;5069396;28;20383;-75
2023/03/19 09:14:38;;;;;;;27.42;17.10;;;9.60;96.30;;;;;;5087840;28;20038;-75
2023/03/19 09:17:04;;;;;;;31.00;18.00;;;9.70;96.50;;;;;;5089734;28;20666;-75
2023/03/19 09:19:30;;;;;;;28.92;16.70;;;9.80;96.50;;;;;;5089981;28;20040;-75
2023/03/19 09:21:56;;;;;;;27.48;17.80;;;9.90;96.60;;;;;;5089735;28;20119;-75
2023/03/19 09:24:21;;;;;;;26.40;17.17;;;10.10;96.30;;;;;;5089893;28;20031;-75
2023/03/19 09:26:48;;;;;;;29.17;18.20;;;10.20;96.20;;;;;;5089475;28;20076;-75
2023/03/19 09:29:15;;;;;;;29.05;17.73;;;10.20;95.80;;;;;;5089935;28;20036;-75
2023/03/19 09:31:41;;;;;;;28.30;17.77;;;10.30;96.20;;;;;;5089919;28;20059;-76
2023/03/19 09:34:07;;;;;;;28.70;17.10;;;10.50;95.60;;;;;;5089416;28;20077;-75
2023/03/19 09:36:35;;;;;;;27.63;18.30;;;10.70;95.10;;;;;;5089806;28;20032;-75
2023/03/19 09:39:01;;;;;;;29.80;17.63;;;10.90;94.70;;;;;;5089493;28;20057;-75
2023/03/19 09:41:47;;;;;;;26.77;17.67;;;11.00;94.90;;;;;;5088424;28;20020;-75
2023/03/19 09:44:26;;;;;;;29.65;18.45;;;11.30;94.50;;;;;;5066780;28;20565;-75
2023/03/19 09:47:17;;;;;;;30.02;18.58;;;11.20;94.50;;;;;;5089488;28;20095;-75
2023/03/19 09:49:46;;;;;;;29.60;18.40;;;11.30;94.20;;;;;;5088449;28;20038;-75
2023/03/19 09:52:35;;;;;;;32.13;19.48;;;11.40;94.10;;;;;;5087140;28;20114;-76
2023/03/19 09:55:40;;;;;;;31.80;18.60;;;11.30;93.80;;;;;;5086856;28;20418;-75
2023/03/19 09:58:14;;;;;;;;;;;11.50;94.20;;;;;;5004595;28;20049;-75
2023/03/19 10:00:41;;;;;;;27.25;17.35;;;11.70;93.70;;;;;;5056578;28;19912;-75
2023/03/19 10:03:29;;;;;;;32.42;19.60;;;11.70;93.70;;;;;;5082513;28;20059;-76
2023/03/19 10:06:09;;;;;;;31.05;20.58;;;11.70;93.50;;;;;;5080415;28;20367;-75
2023/03/19 10:08:56;;;;;;;30.23;17.95;;;11.90;93.50;;;;;;5088402;28;20066;-75
2023/03/19 10:11:41;;;;;;;28.35;18.45;;;12.10;93.30;;;;;;5073632;28;20081;-75
2023/03/19 10:14:12;;;;;;;;;;;11.90;93.20;;;;;;5088051;28;20120;-77
2023/03/19 10:16:42;;;;;;;30.45;18.52;;;12.20;93.20;;;;;;5087783;28;19915;-75
2023/03/19 10:19:12;;;;;;;28.75;18.10;;;12.10;92.70;;;;;;5087975;28;20036;-75
2023/03/19 10:21:41;;;;;;;31.67;19.83;;;12.20;92.80;;;;;;5087894;28;20043;-75
2023/03/19 10:24:45;;;;;;;31.25;20.20;;;12.20;92.20;;;;;;5086895;28;20024;-76
2023/03/19 10:27:16;;;;;;;38.28;20.33;;;12.10;92.40;;;;;;5084552;28;20067;-75
2023/03/19 10:29:42;;;;;;;30.13;19.05;;;12.10;92.50;;;;;;5086304;28;20458;-75
2023/03/19 10:32:28;;;;;;;33.15;18.30;;;12.10;92.90;;;;;;5086548;28;20059;-75
2023/03/19 10:34:57;;;;;;;28.98;19.15;;;12.50;93.20;;;;;;5087658;28;20137;-75
2023/03/19 10:37:29;;;;;;;33.85;21.02;;;12.40;92.30;;;;;;5083927;28;20059;-76
2023/03/19 10:39:57;;;;;;;34.17;20.98;;;12.30;92.20;;;;;;5087200;28;20060;-75
2023/03/19 10:42:45;;;;;;;32.70;20.10;;;12.30;91.90;;;;;;5086455;28;20536;-75
2023/03/19 10:45:26;;;;;;;31.50;19.20;;;12.60;92.50;;;;;;5068105;28;20135;-76
2023/03/19 10:47:52;;;;;;;37.13;19.35;;;12.80;92.00;;;;;;5081111;28;20037;-75
2023/03/19 10:50:36;;;;;;;30.42;19.50;;;12.80;92.30;;;;;;5087783;28;20032;-76
2023/03/19 10:53:13;;;;;;;32.13;20.20;;;12.70;92.20;;;;;;5087540;28;20135;-76
2023/03/19 10:56:04;;;;;;;44.70;21.25;;;12.70;92.20;;;;;;5088206;28;20047;-75
2023/03/19 10:58:33;;;;;;;33.78;20.42;;;12.80;92.10;;;;;;5085988;28;20040;-76
2023/03/19 11:01:07;;;;;;;33.83;21.85;;;12.90;92.10;;;;;;5087324;28;20028;-75
2023/03/19 11:03:36;;;;;;;36.40;21.13;;;13.00;91.80;;;;;;5082668;28;20025;-75
2023/03/19 11:06:06;;;;;;;33.00;20.67;;;13.30;92.30;;;;;;5068059;28;20047;-75
2023/03/19 11:08:36;;;;;;;35.25;22.10;;;13.60;91.50;;;;;;5076967;28;20111;-75
2023/03/19 11:11:02;;;;;;;32.47;20.92;;;13.20;91.20;;;;;;5071652;28;20032;-75
2023/03/19 11:13:29;;;;;;;32.63;21.48;;;13.10;91.30;;;;;;5069530;28;20044;-75
2023/03/19 11:15:59;;;;;;;32.47;20.35;;;13.00;91.60;;;;;;5087855;28;20028;-75
2023/03/19 11:18:30;;;;;;;31.77;20.65;;;13.10;91.60;;;;;;5087862;28;20149;-75
2023/03/19 11:21:05;;;;;;;44.72;28.20;;;13.40;91.50;;;;;;5088039;28;20338;-76
2023/03/19 11:23:36;;;;;;;;;;;13.50;91.40;;;;;;5088586;28;20024;-75
2023/03/19 11:26:03;;;;;;;31.02;20.63;;;13.60;90.90;;;;;;5088134;28;19908;-75
2023/03/19 11:28:32;;;;;;;29.90;19.13;;;13.80;91.60;;;;;;5088648;28;20032;-76
2023/03/19 11:31:19;;;;;;;31.08;19.95;;;14.00;91.00;;;;;;5088452;28;20072;-75
2023/03/19 11:34:36;;;;;;;29.52;18.95;;;13.70;90.60;;;;;;5087772;28;20208;-75
2023/03/19 11:37:13;;;;;;;29.70;20.17;;;14.00;90.90;;;;;;5042507;28;20082;-75
2023/03/19 11:39:46;;;;;;;33.80;20.02;;;14.60;91.20;;;;;;5087454;28;20369;-77
2023/03/19 11:42:44;;;;;;;29.85;19.58;;;14.60;91.10;;;;;;5086601;28;20056;-75
2023/03/19 11:45:09;;;;;;;29.23;20.23;;;15.00;91.10;;;;;;5087298;28;20032;-75
2023/03/19 11:47:52;;;;;;;30.63;18.60;;;15.10;90.50;;;;;;5088829;28;20073;-75
2023/03/19 11:50:44;;;;;;;24.73;16.63;;;15.30;90.50;;;;;;5090706;28;20435;-76
2023/03/19 11:53:36;;;;;;;21.70;15.95;;;15.30;90.10;;;;;;5090806;28;20482;-76
2023/03/19 11:56:32;;;;;;;31.30;17.60;;;15.40;90.00;;;;;;5090831;28;20521;-75
2023/03/19 11:59:06;;;;;;;29.10;15.23;;;15.30;89.30;;;;;;5090435;28;20062;-76
2023/03/19 12:01:50;;;;;;;;;;;15.20;89.50;;;;;;5087942;28;20047;-74
2023/03/19 12:04:28;;;;;;;22.70;15.45;;;15.10;89.40;;;;;;5076334;28;19984;-74
2023/03/19 12:07:01;;;;;;;26.80;16.20;;;15.50;89.40;;;;;;5089907;28;20059;-73
2023/03/19 12:09:52;;;;;;;27.95;18.40;;;15.80;88.90;;;;;;5088499;28;20485;-74
2023/03/19 12:12:24;;;;;;;24.98;18.33;;;15.70;88.30;;;;;;5089568;28;20637;-74
2023/03/19 12:15:03;;;;;;;30.33;19.20;;;15.70;88.90;;;;;;5088167;28;20073;-74
2023/03/19 12:17:53;;;;;;;32.47;21.08;;;15.60;90.10;;;;;;5088745;28;20039;-74
2023/03/19 12:21:11;;;;;;;38.15;24.50;;;15.50;89.70;;;;;;5090631;28;20020;-73
2023/03/19 12:23:54;;;;;;;76.13;41.45;;;15.30;89.80;;;;;;5039801;28;20055;-74
2023/03/19 12:26:59;;;;;;;25.15;16.73;;;15.30;89.20;;;;;;5088621;28;20020;-74
2023/03/19 12:29:59;;;;;;;32.73;18.80;;;15.50;90.10;;;;;;5088739;28;20143;-74
2023/03/19 12:32:54;;;;;;;82.53;37.85;;;15.80;90.20;;;;;;5070230;28;20035;-74
2023/03/19 12:35:33;;;;;;;163.98;80.10;;;15.90;89.00;;;;;;5069377;28;20039;-74
2023/03/19 12:38:15;;;;;;;96.70;57.75;;;16.10;89.20;;;;;;5074010;28;20074;-74
2023/03/19 12:41:03;;;;;;;214.02;111.70;;;16.00;88.00;;;;;;5089606;28;20101;-75
2023/03/19 12:43:32;;;;;;;157.48;90.43;;;16.00;87.40;;;;;;5075064;28;20032;-74
2023/03/19 12:46:13;;;;;;;42.33;26.50;;;16.00;87.30;;;;;;5089541;28;20030;-73
2023/03/19 12:48:52;;;;;;;44.10;27.42;;;16.00;87.40;;;;;;5088498;28;20028;-74